Time;durP1;ratioP1;P1;durP2;ratioP2;P2;SDS_P1;SDS_P2;PMS_P1;PMS_P2;Temp;Humidity;BMP_temperature;BMP_pressure;BME280_temperature;BME280_humidity;BME280_pressure;Samples;Min_cycle;Max_cycle;Signal;HPM_P1;HPM_P2
2022/03/30 00:02:12;;;;;;;55.33;15.88;;;;;;;;;;5097998;28;20070;-57
2022/03/30 00:04:38;;;;;;;59.28;15.32;;;;;;;;;;5097659;28;20466;-58
2022/03/30 00:07:04;;;;;;;42.17;17.88;;;;;;;;;;5096673;28;20438;-57
2022/03/30 00:09:29;;;;;;;67.72;17.00;;;;;;;;;;5096990;28;20105;-57
2022/03/30 00:11:56;;;;;;;71.65;16.40;;;;;;;;;;5095462;28;20059;-57
2022/03/30 00:14:21;;;;;;;56.58;18.02;;;;;;;;;;5099995;28;20215;-57
2022/03/30 00:16:48;;;;;;;44.58;15.95;;;;;;;;;;5095689;28;20126;-57
2022/03/30 00:19:13;;;;;;;72.50;18.00;;;;;;;;;;5097880;28;20094;-57
2022/03/30 00:21:38;;;;;;;53.88;16.95;;;;;;;;;;5096910;28;20686;-57
2022/03/30 00:24:04;;;;;;;44.22;17.75;;;;;;;;;;5101144;28;20660;-57
2022/03/30 00:26:29;;;;;;;53.10;12.60;;;;;;;;;;5098435;28;20047;-58
2022/03/30 00:28:55;;;;;;;46.97;18.08;;;;;;;;;;5098219;28;20406;-58
2022/03/30 00:31:20;;;;;;;50.97;16.90;;;;;;;;;;5098305;28;20542;-58
2022/03/30 00:33:46;;;;;;;51.30;17.13;;;;;;;;;;5097438;28;20376;-58
2022/03/30 00:36:11;;;;;;;65.32;18.75;;;;;;;;;;5096377;28;20139;-58
2022/03/30 00:38:37;;;;;;;42.10;16.83;;;;;;;;;;5096550;28;20131;-57
2022/03/30 00:41:02;;;;;;;50.20;14.05;;;;;;;;;;5094797;28;20052;-58
2022/03/30 00:43:27;;;;;;;33.38;10.82;;;;;;;;;;5095371;28;20048;-57
2022/03/30 00:45:53;;;;;;;67.38;15.45;;;;;;;;;;5099976;28;20042;-58
2022/03/30 00:48:18;;;;;;;38.85;11.00;;;;;;;;;;5097335;28;20055;-58
2022/03/30 00:50:43;;;;;;;59.03;16.65;;;;;;;;;;5096503;28;20048;-58
2022/03/30 00:53:08;;;;;;;49.20;17.23;;;;;;;;;;5100351;28;20438;-58
2022/03/30 00:55:34;;;;;;;44.22;13.90;;;;;;;;;;5094117;28;20044;-58
2022/03/30 00:58:00;;;;;;;49.83;12.75;;;;;;;;;;5097168;28;20043;-58
2022/03/30 01:00:25;;;;;;;81.53;17.10;;;;;;;;;;5096633;28;20119;-57
2022/03/30 01:02:52;;;;;;;59.97;16.48;;;;;;;;;;5094546;28;20051;-58
2022/03/30 01:05:18;;;;;;;56.35;15.27;;;;;;;;;;5099132;28;20583;-58
2022/03/30 01:07:44;;;;;;;52.88;15.50;;;;;;;;;;5098601;28;20040;-57
2022/03/30 01:10:10;;;;;;;77.40;14.40;;;;;;;;;;5096677;28;20562;-57
2022/03/30 01:12:38;;;;;;;37.63;14.55;;;;;;;;;;5099317;28;20070;-58
2022/03/30 01:15:04;;;;;;;39.08;13.55;;;;;;;;;;5097642;28;20051;-57
2022/03/30 01:17:29;;;;;;;46.53;13.48;;;;;;;;;;5096751;28;20495;-57
2022/03/30 01:19:55;;;;;;;48.25;13.60;;;;;;;;;;5096374;28;20180;-57
2022/03/30 01:22:20;;;;;;;50.55;14.38;;;;;;;;;;5100066;28;20051;-57
2022/03/30 01:24:45;;;;;;;51.03;14.38;;;;;;;;;;5100604;28;20047;-58
2022/03/30 01:27:11;;;;;;;56.33;17.20;;;;;;;;;;5097638;28;20169;-57
2022/03/30 01:32:26;;;;;;;46.50;13.93;;;;;;;;;;5097578;28;20432;-57
2022/03/30 01:34:52;;;;;;;40.10;14.32;;;;;;;;;;5094587;28;20043;-58
2022/03/30 01:37:18;;;;;;;31.52;13.95;;;;;;;;;;5097502;28;20054;-58
2022/03/30 01:39:43;;;;;;;39.75;13.68;;;;;;;;;;5093595;28;20039;-58
2022/03/30 01:42:09;;;;;;;37.15;14.00;;;;;;;;;;5095690;28;20086;-57
2022/03/30 01:44:36;;;;;;;43.05;13.73;;;;;;;;;;5095321;28;20048;-57
2022/03/30 01:47:01;;;;;;;52.58;16.27;;;;;;;;;;5099019;28;20084;-57
2022/03/30 01:49:26;;;;;;;55.53;14.65;;;;;;;;;;5100567;28;20138;-58
2022/03/30 01:51:53;;;;;;;50.25;12.05;;;;;;;;;;5095962;28;20046;-58
2022/03/30 01:54:20;;;;;;;58.53;16.48;;;;;;;;;;5097862;28;20177;-57
2022/03/30 01:56:46;;;;;;;47.47;15.68;;;;;;;;;;5094145;28;20036;-57
2022/03/30 01:59:11;;;;;;;44.90;15.05;;;;;;;;;;5093848;28;20140;-58
2022/03/30 02:01:37;;;;;;;41.80;14.07;;;;;;;;;;5094243;28;20079;-57
2022/03/30 02:04:03;;;;;;;47.53;15.82;;;;;;;;;;5098932;28;20047;-57
2022/03/30 02:06:28;;;;;;;38.58;13.95;;;;;;;;;;5096829;28;20514;-58
2022/03/30 02:08:53;;;;;;;39.53;15.77;;;;;;;;;;5097905;28;20055;-58
2022/03/30 02:11:18;;;;;;;30.48;12.02;;;;;;;;;;5092925;28;20062;-58
2022/03/30 02:13:44;;;;;;;52.60;14.73;;;;;;;;;;5094770;28;20721;-57
2022/03/30 02:16:09;;;;;;;44.85;13.43;;;;;;;;;;5094931;28;20110;-58
2022/03/30 02:18:35;;;;;;;32.97;11.13;;;;;;;;;;5094910;28;20027;-58
2022/03/30 02:21:00;;;;;;;47.05;14.98;;;;;;;;;;5097202;28;20594;-57
2022/03/30 02:23:26;;;;;;;33.30;12.48;;;;;;;;;;5095111;28;20130;-57
2022/03/30 02:25:51;;;;;;;59.65;14.45;;;;;;;;;;5097079;28;20487;-57
2022/03/30 02:28:16;;;;;;;62.08;12.32;;;;;;;;;;5095796;28;20078;-57
2022/03/30 02:30:41;;;;;;;36.90;15.10;;;;;;;;;;5094709;28;20055;-57
2022/03/30 02:33:07;;;;;;;48.92;14.50;;;;;;;;;;5097686;28;20180;-58
2022/03/30 02:35:33;;;;;;;40.60;13.65;;;;;;;;;;5096443;28;20255;-57
2022/03/30 02:37:59;;;;;;;44.28;12.70;;;;;;;;;;5097083;28;20563;-57
2022/03/30 02:40:24;;;;;;;39.28;12.52;;;;;;;;;;5097549;28;20061;-57
2022/03/30 02:42:50;;;;;;;31.88;12.00;;;;;;;;;;5096274;28;20040;-57
2022/03/30 02:45:15;;;;;;;32.30;12.55;;;;;;;;;;5096390;28;20143;-57
2022/03/30 02:50:24;;;;;;;47.83;16.90;;;;;;;;;;5097532;28;20059;-58
2022/03/30 02:52:49;;;;;;;37.63;16.98;;;;;;;;;;5097430;28;20043;-57
2022/03/30 02:55:15;;;;;;;75.53;17.88;;;;;;;;;;5100999;28;20120;-58
2022/03/30 02:57:40;;;;;;;35.92;11.85;;;;;;;;;;5097642;28;20415;-57
2022/03/30 03:00:07;;;;;;;35.38;13.85;;;;;;;;;;5095260;28;20036;-58
2022/03/30 03:02:34;;;;;;;30.95;10.82;;;;;;;;;;5093682;28;20067;-57
2022/03/30 03:04:59;;;;;;;34.20;14.13;;;;;;;;;;5096914;28;20408;-58
2022/03/30 03:07:25;;;;;;;60.72;13.68;;;;;;;;;;5096473;28;20035;-57
2022/03/30 03:09:50;;;;;;;32.72;10.88;;;;;;;;;;5094200;28;20506;-58
2022/03/30 03:12:15;;;;;;;28.40;10.35;;;;;;;;;;5093907;28;20074;-58
2022/03/30 03:14:41;;;;;;;28.48;13.93;;;;;;;;;;5096786;28;20462;-58
2022/03/30 03:17:06;;;;;;;34.55;7.35;;;;;;;;;;5097754;28;20051;-57
2022/03/30 03:19:32;;;;;;;37.42;13.05;;;;;;;;;;5099300;28;20031;-57
2022/03/30 03:21:57;;;;;;;30.42;14.00;;;;;;;;;;5095372;28;20040;-58
2022/03/30 03:24:23;;;;;;;43.22;14.95;;;;;;;;;;5101880;28;20574;-57
2022/03/30 03:26:48;;;;;;;43.55;13.27;;;;;;;;;;5098890;28;20044;-58
2022/03/30 03:29:13;;;;;;;43.70;12.00;;;;;;;;;;5099421;28;20546;-57
2022/03/30 03:31:38;;;;;;;36.33;13.63;;;;;;;;;;5099606;28;20529;-57
2022/03/30 03:34:04;;;;;;;37.25;14.98;;;;;;;;;;5099882;28;21026;-58
2022/03/30 03:36:29;;;;;;;54.35;13.98;;;;;;;;;;5101266;28;20124;-58
2022/03/30 03:38:54;;;;;;;43.65;15.15;;;;;;;;;;5098677;28;20051;-57
2022/03/30 03:41:20;;;;;;;40.22;13.48;;;;;;;;;;5096589;28;20434;-57
2022/03/30 03:43:46;;;;;;;35.97;11.63;;;;;;;;;;5096014;28;20227;-57
2022/03/30 03:46:11;;;;;;;56.55;14.18;;;;;;;;;;5096644;28;20141;-57
2022/03/30 03:48:36;;;;;;;64.15;18.17;;;;;;;;;;5098123;28;20594;-57
2022/03/30 03:51:02;;;;;;;31.85;14.55;;;;;;;;;;5099735;28;20056;-57
2022/03/30 03:53:27;;;;;;;35.17;15.13;;;;;;;;;;5100737;28;20046;-57
2022/03/30 03:55:52;;;;;;;50.85;13.32;;;;;;;;;;5102561;28;20477;-57
2022/03/30 03:58:18;;;;;;;48.80;14.98;;;;;;;;;;5100949;28;20146;-57
2022/03/30 04:00:43;;;;;;;47.95;12.70;;;;;;;;;;5097952;28;20050;-57
2022/03/30 04:03:08;;;;;;;57.70;13.25;;;;;;;;;;5097641;28;20040;-57
2022/03/30 04:05:33;;;;;;;32.95;13.02;;;;;;;;;;5098758;28;20434;-57
2022/03/30 04:07:59;;;;;;;48.08;15.70;;;;;;;;;;5100721;28;20384;-57
2022/03/30 04:10:24;;;;;;;34.97;10.45;;;;;;;;;;5099420;28;20093;-57
2022/03/30 04:12:49;;;;;;;42.58;10.80;;;;;;;;;;5099906;28;20547;-57
2022/03/30 04:15:15;;;;;;;44.08;12.73;;;;;;;;;;5100566;28;20047;-57
2022/03/30 04:17:47;;;;;;;44.50;13.20;;;;;;;;;;5097804;28;20047;-57
2022/03/30 04:20:13;;;;;;;39.35;8.50;;;;;;;;;;5097225;28;20054;-58
2022/03/30 04:22:39;;;;;;;33.25;13.25;;;;;;;;;;5097397;28;20044;-56
2022/03/30 04:25:05;;;;;;;53.53;15.70;;;;;;;;;;5100782;28;20505;-57
2022/03/30 04:27:30;;;;;;;52.67;15.07;;;;;;;;;;5099556;28;20043;-57
2022/03/30 04:29:55;;;;;;;49.15;12.02;;;;;;;;;;5101829;28;20035;-57
2022/03/30 04:32:21;;;;;;;52.90;15.70;;;;;;;;;;5100152;28;20479;-57
2022/03/30 04:34:46;;;;;;;37.33;12.52;;;;;;;;;;5099040;28;20038;-57
2022/03/30 04:37:11;;;;;;;32.28;14.00;;;;;;;;;;5096967;28;20032;-57
2022/03/30 04:39:37;;;;;;;17.25;8.20;;;;;;;;;;5096406;28;20100;-57
2022/03/30 04:42:02;;;;;;;39.35;13.38;;;;;;;;;;5099281;28;20511;-57
2022/03/30 04:44:28;;;;;;;29.85;12.00;;;;;;;;;;5097693;28;20584;-57
2022/03/30 04:46:53;;;;;;;46.15;13.50;;;;;;;;;;5097215;28;20047;-57
2022/03/30 04:49:19;;;;;;;37.00;10.10;;;;;;;;;;5098995;28;20043;-57
2022/03/30 04:51:44;;;;;;;26.30;12.18;;;;;;;;;;5099217;28;20368;-57
2022/03/30 04:54:09;;;;;;;47.78;12.35;;;;;;;;;;5098321;28;20070;-56
2022/03/30 04:56:35;;;;;;;33.13;11.18;;;;;;;;;;5098015;28;20636;-56
2022/03/30 04:59:00;;;;;;;36.00;16.05;;;;;;;;;;5099337;28;20036;-56
2022/03/30 05:01:26;;;;;;;28.92;11.40;;;;;;;;;;5096391;28;20113;-56
2022/03/30 05:03:52;;;;;;;44.38;14.90;;;;;;;;;;5095939;28;20128;-57
2022/03/30 05:06:17;;;;;;;60.10;16.40;;;;;;;;;;5094253;28;20047;-56
2022/03/30 05:08:42;;;;;;;57.17;16.70;;;;;;;;;;5098757;28;20094;-56
2022/03/30 05:11:08;;;;;;;39.28;13.05;;;;;;;;;;5098543;28;20063;-57
2022/03/30 05:13:33;;;;;;;67.20;17.38;;;;;;;;;;5095645;28;20064;-56
2022/03/30 05:15:58;;;;;;;79.60;18.58;;;;;;;;;;5095697;28;20027;-57
2022/03/30 05:18:24;;;;;;;46.22;16.50;;;;;;;;;;5093589;28;20036;-56
2022/03/30 05:20:49;;;;;;;84.10;19.17;;;;;;;;;;5097080;28;20044;-56
2022/03/30 05:23:15;;;;;;;56.20;18.77;;;;;;;;;;5099117;28;20144;-57
2022/03/30 05:25:40;;;;;;;34.28;13.38;;;;;;;;;;5094028;28;20715;-56
2022/03/30 05:28:05;;;;;;;52.25;14.98;;;;;;;;;;5094850;28;20101;-57
2022/03/30 05:30:31;;;;;;;75.78;23.20;;;;;;;;;;5097229;28;20051;-57
2022/03/30 05:32:56;;;;;;;67.28;28.52;;;;;;;;;;5097892;28;20044;-54
2022/03/30 05:35:21;;;;;;;37.42;18.80;;;;;;;;;;5096508;28;20056;-55
2022/03/30 05:37:47;;;;;;;20.33;10.00;;;;;;;;;;5092944;28;20696;-54
2022/03/30 05:40:12;;;;;;;42.78;8.82;;;;;;;;;;5095875;27;20097;-54
2022/03/30 05:42:38;;;;;;;51.13;14.13;;;;;;;;;;5094255;28;20061;-54
2022/03/30 05:45:04;;;;;;;32.30;13.32;;;;;;;;;;5097968;28;20043;-55
2022/03/30 05:47:30;;;;;;;23.30;12.20;;;;;;;;;;5095625;28;20765;-56
2022/03/30 05:49:55;;;;;;;26.58;9.65;;;;;;;;;;5097211;28;20047;-56
2022/03/30 05:52:20;;;;;;;59.85;16.42;;;;;;;;;;5097085;28;20059;-55
2022/03/30 05:54:46;;;;;;;39.92;15.02;;;;;;;;;;5096436;28;20047;-56
2022/03/30 05:57:11;;;;;;;48.15;15.82;;;;;;;;;;5097320;28;20411;-56
2022/03/30 05:59:40;;;;;;;45.03;17.45;;;;;;;;;;5098110;28;20076;-56
2022/03/30 06:02:08;;;;;;;40.33;21.00;;;;;;;;;;5097887;28;20138;-54
2022/03/30 06:04:34;;;;;;;57.38;19.75;;;;;;;;;;5092826;28;20047;-54
2022/03/30 06:06:59;;;;;;;38.58;15.75;;;;;;;;;;5097008;28;20044;-55
2022/03/30 06:09:24;;;;;;;21.38;8.73;;;;;;;;;;5093158;28;20059;-54
2022/03/30 06:11:50;;;;;;;39.08;17.95;;;;;;;;;;5094406;28;20067;-51
2022/03/30 06:14:15;;;;;;;44.00;13.23;;;;;;;;;;5096614;28;20043;-55
2022/03/30 06:16:41;;;;;;;44.70;16.33;;;;;;;;;;5094507;28;20043;-57
2022/03/30 06:19:07;;;;;;;47.40;15.02;;;;;;;;;;5094118;28;20062;-54
2022/03/30 06:21:33;;;;;;;23.60;7.28;;;;;;;;;;5100877;28;20039;-55
2022/03/30 06:23:58;;;;;;;32.67;8.63;;;;;;;;;;5096234;28;20105;-57
2022/03/30 06:26:24;;;;;;;40.85;11.50;;;;;;;;;;5096991;28;20046;-52
2022/03/30 06:28:50;;;;;;;44.53;14.00;;;;;;;;;;5100762;28;20039;-53
2022/03/30 06:31:17;;;;;;;38.88;14.35;;;;;;;;;;5093881;28;20052;-57
2022/03/30 06:33:46;;;;;;;7.07;5.15;;;;;;;;;;5091667;28;20028;-56
2022/03/30 06:36:12;;;;;;;22.35;11.70;;;;;;;;;;5096268;28;20052;-56
2022/03/30 06:38:37;;;;;;;15.07;9.90;;;;;;;;;;5093365;28;20458;-56
2022/03/30 06:41:04;;;;;;;24.67;10.70;;;;;;;;;;5097645;28;20461;-56
2022/03/30 06:43:29;;;;;;;12.23;8.35;;;;;;;;;;5097475;28;20090;-56
2022/03/30 06:45:55;;;;;;;10.25;6.72;;;;;;;;;;5096354;28;20478;-57
2022/03/30 06:48:20;;;;;;;20.52;8.73;;;;;;;;;;5099191;28;20055;-57
2022/03/30 06:50:46;;;;;;;26.35;10.93;;;;;;;;;;5096060;28;20085;-57
2022/03/30 06:53:11;;;;;;;20.70;8.93;;;;;;;;;;5096454;28;20043;-56
2022/03/30 06:55:38;;;;;;;22.08;10.38;;;;;;;;;;5096885;28;20474;-57
2022/03/30 06:58:04;;;;;;;14.57;7.90;;;;;;;;;;5095634;28;20051;-57
2022/03/30 07:00:29;;;;;;;7.28;5.72;;;;;;;;;;5095916;28;20088;-56
2022/03/30 07:02:55;;;;;;;12.20;5.88;;;;;;;;;;5097821;28;20556;-56
2022/03/30 07:05:20;;;;;;;12.50;5.13;;;;;;;;;;5095581;28;20043;-56
2022/03/30 07:10:33;;;;;;;6.30;2.63;;;;;;;;;;5066179;28;20051;-57
2022/03/30 07:13:00;;;;;;;12.20;5.97;;;;;;;;;;5096224;28;20044;-52
2022/03/30 07:15:26;;;;;;;7.93;4.57;;;;;;;;;;5093680;28;20118;-51
2022/03/30 07:17:52;;;;;;;6.25;4.07;;;;;;;;;;5092940;28;20113;-52
2022/03/30 07:20:18;;;;;;;14.45;5.55;;;;;;;;;;5094917;28;20150;-53
2022/03/30 07:22:44;;;;;;;7.38;4.93;;;;;;;;;;5097244;28;20044;-54
2022/03/30 07:25:10;;;;;;;10.38;4.57;;;;;;;;;;5095167;28;20036;-54
2022/03/30 07:27:40;;;;;;;8.43;3.50;;;;;;;;;;5093255;28;20039;-52
2022/03/30 07:30:06;;;;;;;13.80;5.97;;;;;;;;;;5095680;28;20136;-55
2022/03/30 07:32:32;;;;;;;4.57;2.25;;;;;;;;;;5094395;28;20093;-54
2022/03/30 07:34:57;;;;;;;11.68;4.93;;;;;;;;;;5094737;28;20131;-54
2022/03/30 07:37:22;;;;;;;7.90;3.47;;;;;;;;;;5092931;28;20059;-54
2022/03/30 07:39:48;;;;;;;8.05;5.68;;;;;;;;;;5096838;28;20159;-53
2022/03/30 07:42:13;;;;;;;7.55;4.18;;;;;;;;;;5096196;28;20052;-53
2022/03/30 07:44:39;;;;;;;11.00;3.67;;;;;;;;;;5092737;28;20046;-51
2022/03/30 07:47:05;;;;;;;14.05;5.18;;;;;;;;;;5093649;28;20060;-53
2022/03/30 07:49:30;;;;;;;10.45;6.18;;;;;;;;;;5092846;28;20503;-52
2022/03/30 07:51:55;;;;;;;9.35;3.67;;;;;;;;;;5094706;28;20036;-50
2022/03/30 07:54:21;;;;;;;7.07;4.07;;;;;;;;;;5095943;28;20119;-52
2022/03/30 07:56:46;;;;;;;12.25;4.32;;;;;;;;;;5097263;28;20124;-54
2022/03/30 07:59:13;;;;;;;8.40;2.67;;;;;;;;;;5097011;28;20044;-56
2022/03/30 08:01:38;;;;;;;2.67;1.80;;;;;;;;;;5095426;28;20507;-56
2022/03/30 08:04:03;;;;;;;10.05;1.33;;;;;;;;;;5095700;28;20127;-54
2022/03/30 08:06:29;;;;;;;2.88;1.05;;;;;;;;;;5098289;28;20562;-55
2022/03/30 08:08:54;;;;;;;5.05;2.08;;;;;;;;;;5100350;28;20153;-43
2022/03/30 08:11:19;;;;;;;7.97;3.03;;;;;;;;;;5098320;28;20446;-43
2022/03/30 08:13:45;;;;;;;4.35;1.63;;;;;;;;;;5098420;28;20047;-42
2022/03/30 08:16:10;;;;;;;8.15;2.50;;;;;;;;;;5099284;28;20043;-44
2022/03/30 08:18:36;;;;;;;18.83;2.10;;;;;;;;;;5096773;28;20242;-44
2022/03/30 08:23:45;;;;;;;5.72;1.65;;;;;;;;;;5098710;28;20104;-41
2022/03/30 08:26:10;;;;;;;7.22;1.98;;;;;;;;;;5099905;28;20069;-48
2022/03/30 08:28:35;;;;;;;3.53;1.98;;;;;;;;;;5099867;28;20112;-46
2022/03/30 08:31:01;;;;;;;4.43;1.05;;;;;;;;;;5100782;28;20469;-43
2022/03/30 08:33:27;;;;;;;9.13;2.22;;;;;;;;;;5098436;28;20556;-43
2022/03/30 08:35:55;;;;;;;4.68;1.48;;;;;;;;;;5098158;28;20047;-45
2022/03/30 08:38:21;;;;;;;10.48;2.58;;;;;;;;;;5098892;28;20039;-44
2022/03/30 08:40:46;;;;;;;3.53;1.40;;;;;;;;;;5098332;28;20055;-44
2022/03/30 08:43:12;;;;;;;5.38;1.77;;;;;;;;;;5095839;28;20071;-45
2022/03/30 08:45:37;;;;;;;7.18;2.55;;;;;;;;;;5099334;28;20812;-46
2022/03/30 08:48:02;;;;;;;34.95;4.07;;;;;;;;;;5097349;28;20072;-43
2022/03/30 08:50:28;;;;;;;1.75;0.73;;;;;;;;;;5094891;28;20078;-45
2022/03/30 08:52:55;;;;;;;3.35;2.00;;;;;;;;;;5099682;28;20093;-44
2022/03/30 08:55:21;;;;;;;7.15;3.13;;;;;;;;;;5095731;28;20149;-49
2022/03/30 08:57:47;;;;;;;7.45;3.50;;;;;;;;;;5097108;28;20131;-47
2022/03/30 09:00:16;;;;;;;4.95;2.95;;;;;;;;;;5096139;28;20566;-44
2022/03/30 09:02:44;;;;;;;10.32;4.43;;;;;;;;;;5098640;28;20043;-44
2022/03/30 09:05:15;;;;;;;18.08;2.78;;;;;;;;;;5098025;28;20040;-46
2022/03/30 09:07:41;;;;;;;19.48;3.60;;;;;;;;;;5097920;28;20122;-45
2022/03/30 09:10:11;;;;;;;8.98;1.33;;;;;;;;;;5099263;27;20130;-44
2022/03/30 09:12:37;;;;;;;8.10;3.95;;;;;;;;;;5096346;28;20136;-49
2022/03/30 09:15:04;;;;;;;8.45;2.47;;;;;;;;;;5097781;28;20040;-44
2022/03/30 09:17:35;;;;;;;8.80;3.15;;;;;;;;;;5098254;28;20081;-48
2022/03/30 09:20:01;;;;;;;;;;;;;;;;;;5100417;28;20039;-42
2022/03/30 09:22:28;;;;;;;8.60;3.40;;;;;;;;;;5096222;28;19916;-45
2022/03/30 09:24:54;;;;;;;7.22;2.25;;;;;;;;;;5097099;28;20299;-47
2022/03/30 09:27:23;;;;;;;5.75;2.25;;;;;;;;;;5098546;28;20090;-45
2022/03/30 09:29:49;;;;;;;3.67;2.33;;;;;;;;;;5095585;28;20071;-43
2022/03/30 09:32:15;;;;;;;2.97;1.08;;;;;;;;;;5097274;28;20078;-45
2022/03/30 09:34:47;;;;;;;4.57;0.80;;;;;;;;;;5098122;28;20070;-55
2022/03/30 09:37:13;;;;;;;7.43;1.30;;;;;;;;;;5098550;28;20047;-57
2022/03/30 09:39:38;;;;;;;3.83;1.30;;;;;;;;;;5094399;28;20685;-57
2022/03/30 09:42:05;;;;;;;3.85;0.93;;;;;;;;;;5096363;28;20093;-57
2022/03/30 09:44:30;;;;;;;3.45;1.30;;;;;;;;;;5095349;28;20840;-57
2022/03/30 09:47:05;;;;;;;2.92;1.08;;;;;;;;;;5095337;28;20064;-57
2022/03/30 09:49:31;;;;;;;3.15;1.85;;;;;;;;;;5100156;28;20086;-57
2022/03/30 09:51:56;;;;;;;4.15;1.75;;;;;;;;;;5094795;28;20078;-57
2022/03/30 09:55:00;;;;;;;12.77;1.98;;;;;;;;;;5095590;28;20035;-57
2022/03/30 09:57:34;;;;;;;5.05;1.30;;;;;;;;;;5041197;28;20180;-57
2022/03/30 10:00:04;;;;;;;2.22;1.15;;;;;;;;;;5040840;28;20049;-57
2022/03/30 10:02:31;;;;;;;5.57;1.75;;;;;;;;;;5072747;28;20112;-60
2022/03/30 10:04:56;;;;;;;4.68;2.38;;;;;;;;;;5096417;28;20040;-59
2022/03/30 10:07:22;;;;;;;2.05;1.30;;;;;;;;;;5097454;28;20101;-62
2022/03/30 10:09:48;;;;;;;8.05;2.10;;;;;;;;;;5096242;28;20529;-60
2022/03/30 10:12:17;;;;;;;1.92;1.35;;;;;;;;;;5090497;28;20131;-59
2022/03/30 10:14:42;;;;;;;3.72;2.17;;;;;;;;;;5095156;28;20043;-60
2022/03/30 10:17:08;;;;;;;3.97;1.88;;;;;;;;;;5094741;28;20552;-59
2022/03/30 10:19:34;;;;;;;2.38;0.90;;;;;;;;;;5097332;28;20043;-56
2022/03/30 10:22:10;;;;;;;4.63;1.80;;;;;;;;;;5098906;28;20515;-50
2022/03/30 10:24:38;;;;;;;3.35;1.83;;;;;;;;;;4958022;28;193570;-48
2022/03/30 10:27:10;;;;;;;2.88;1.15;;;;;;;;;;5081364;28;20128;-54
2022/03/30 10:29:36;;;;;;;1.88;0.77;;;;;;;;;;5081574;28;20058;-51
2022/03/30 10:32:09;;;;;;;1.33;0.70;;;;;;;;;;5083257;28;20040;-63
2022/03/30 10:34:39;;;;;;;2.67;1.33;;;;;;;;;;5081201;28;20123;-69
2022/03/30 10:37:09;;;;;;;5.43;3.17;;;;;;;;;;5082594;28;20044;-59
2022/03/30 10:39:34;;;;;;;8.85;1.15;;;;;;;;;;5080617;28;20040;-54
2022/03/30 10:42:09;;;;;;;3.05;1.63;;;;;;;;;;5080163;28;20430;-60
2022/03/30 10:44:35;;;;;;;2.38;1.60;;;;;;;;;;5076904;28;20036;-59
2022/03/30 10:47:07;;;;;;;9.52;1.70;;;;;;;;;;5083229;28;20035;-58
2022/03/30 10:49:38;;;;;;;1.20;0.60;;;;;;;;;;5080284;28;20059;-50
2022/03/30 10:52:22;;;;;;;2.80;1.40;;;;;;;;;;5078213;28;20040;-46
2022/03/30 10:54:48;;;;;;;1.27;1.05;;;;;;;;;;5081453;28;20071;-56
2022/03/30 10:57:33;;;;;;;2.22;1.00;;;;;;;;;;5080232;28;20117;-54
2022/03/30 11:00:15;;;;;;;3.60;1.20;;;;;;;;;;5078107;28;20107;-58
2022/03/30 11:02:40;;;;;;;5.97;1.67;;;;;;;;;;5083720;28;20040;-57
2022/03/30 11:05:09;;;;;;;3.22;1.50;;;;;;;;;;5078863;28;20044;-58
2022/03/30 11:07:35;;;;;;;1.73;0.75;;;;;;;;;;5082602;28;20051;-60
2022/03/30 11:10:13;;;;;;;4.43;1.85;;;;;;;;;;5075668;28;20108;-59
2022/03/30 11:12:57;;;;;;;4.88;3.13;;;;;;;;;;5077725;28;20618;-56
2022/03/30 11:15:22;;;;;;;2.55;1.63;;;;;;;;;;5079209;28;20052;-57
2022/03/30 11:17:48;;;;;;;2.92;2.05;;;;;;;;;;5079020;28;20077;-56
2022/03/30 11:20:16;;;;;;;2.97;1.63;;;;;;;;;;5079464;28;20044;-58
2022/03/30 11:22:44;;;;;;;4.85;1.95;;;;;;;;;;5079898;28;20079;-53
2022/03/30 11:25:10;;;;;;;4.00;1.85;;;;;;;;;;5079731;28;20051;-58
2022/03/30 11:27:35;;;;;;;3.40;1.77;;;;;;;;;;5079035;28;20036;-57
2022/03/30 11:30:08;;;;;;;1.98;1.08;;;;;;;;;;5082748;28;20079;-52
2022/03/30 11:32:37;;;;;;;5.35;1.70;;;;;;;;;;5081059;28;20075;-55
2022/03/30 11:35:10;;;;;;;3.25;0.77;;;;;;;;;;5083300;28;20090;-55
2022/03/30 11:37:35;;;;;;;7.70;4.90;;;;;;;;;;5079589;28;20043;-57
2022/03/30 11:40:02;;;;;;;11.43;4.28;;;;;;;;;;5081724;28;20035;-57
2022/03/30 11:42:27;;;;;;;7.65;2.35;;;;;;;;;;5077468;28;20048;-55
2022/03/30 11:47:36;;;;;;;2.55;1.75;;;;;;;;;;5082607;28;20055;-54
2022/03/30 11:50:02;;;;;;;3.03;2.28;;;;;;;;;;5084682;28;20044;-55
2022/03/30 11:52:27;;;;;;;10.30;3.67;;;;;;;;;;5083402;28;20044;-54
2022/03/30 11:54:54;;;;;;;5.07;2.50;;;;;;;;;;5084154;28;20043;-55
2022/03/30 11:57:20;;;;;;;6.70;4.28;;;;;;;;;;5083743;28;20062;-56
2022/03/30 11:59:58;;;;;;;8.52;3.58;;;;;;;;;;5084580;28;20741;-57
2022/03/30 12:02:24;;;;;;;8.13;5.20;;;;;;;;;;5083025;28;20058;-54
2022/03/30 12:04:50;;;;;;;6.10;3.15;;;;;;;;;;5080945;28;20578;-55
2022/03/30 12:07:16;;;;;;;2.42;1.45;;;;;;;;;;5084489;28;20048;-56
2022/03/30 12:09:45;;;;;;;3.53;1.42;;;;;;;;;;5086662;28;20718;-54
2022/03/30 12:12:11;;;;;;;1.02;0.65;;;;;;;;;;5084320;28;20044;-55
2022/03/30 12:14:36;;;;;;;4.53;2.30;;;;;;;;;;5085195;28;20040;-55
2022/03/30 12:17:04;;;;;;;2.65;1.10;;;;;;;;;;5086308;28;20052;-52
2022/03/30 12:19:29;;;;;;;3.60;1.10;;;;;;;;;;5085540;28;20046;-54
2022/03/30 12:21:54;;;;;;;5.53;2.65;;;;;;;;;;5084235;28;20147;-54
2022/03/30 12:24:31;;;;;;;5.07;1.08;;;;;;;;;;5083111;28;20131;-54
2022/03/30 12:26:58;;;;;;;2.47;1.42;;;;;;;;;;5082520;28;20044;-56
2022/03/30 12:29:29;;;;;;;3.25;1.48;;;;;;;;;;5086747;28;20075;-55
2022/03/30 12:31:57;;;;;;;1.70;0.98;;;;;;;;;;5083936;28;20096;-55
2022/03/30 12:34:26;;;;;;;4.90;1.38;;;;;;;;;;5085210;28;20569;-57
2022/03/30 12:36:58;;;;;;;2.97;1.52;;;;;;;;;;5081199;28;20052;-57
2022/03/30 12:39:24;;;;;;;1.90;1.48;;;;;;;;;;5078276;28;20411;-56
2022/03/30 12:42:03;;;;;;;7.65;2.60;;;;;;;;;;5085035;28;20045;-54
2022/03/30 12:44:32;;;;;;;4.80;1.40;;;;;;;;;;5085081;28;20071;-55
2022/03/30 12:47:01;;;;;;;2.67;1.27;;;;;;;;;;5083709;28;20123;-55
2022/03/30 12:49:39;;;;;;;5.00;1.00;;;;;;;;;;5085338;28;20411;-56
2022/03/30 12:52:11;;;;;;;2.13;1.48;;;;;;;;;;5083456;28;20054;-55
2022/03/30 12:54:37;;;;;;;3.22;1.92;;;;;;;;;;5082393;28;20067;-55
2022/03/30 12:57:02;;;;;;;1.75;1.50;;;;;;;;;;5083912;28;20407;-55
2022/03/30 12:59:27;;;;;;;1.67;1.17;;;;;;;;;;5082124;28;20044;-54
2022/03/30 13:01:53;;;;;;;2.38;1.38;;;;;;;;;;5083232;28;20144;-56
2022/03/30 13:04:19;;;;;;;1.35;0.80;;;;;;;;;;5083362;28;20075;-57
2022/03/30 13:07:04;;;;;;;3.10;1.45;;;;;;;;;;5082602;28;20048;-56
2022/03/30 13:09:29;;;;;;;1.58;1.23;;;;;;;;;;5085250;28;20046;-57
2022/03/30 13:11:57;;;;;;;4.57;0.75;;;;;;;;;;5081817;28;20040;-56
2022/03/30 13:14:22;;;;;;;2.67;1.17;;;;;;;;;;5084433;28;20047;-56
2022/03/30 13:16:55;;;;;;;3.33;0.95;;;;;;;;;;5080415;28;20044;-56
2022/03/30 13:19:22;;;;;;;1.90;1.15;;;;;;;;;;5080118;28;20135;-56
2022/03/30 13:21:47;;;;;;;0.80;0.43;;;;;;;;;;5077445;28;20072;-57
2022/03/30 13:24:21;;;;;;;3.35;1.17;;;;;;;;;;5084441;28;20355;-56
2022/03/30 13:26:51;;;;;;;1.23;0.98;;;;;;;;;;5079970;28;20033;-57
2022/03/30 13:29:17;;;;;;;2.78;0.93;;;;;;;;;;5085647;28;20032;-55
2022/03/30 13:31:46;;;;;;;3.63;2.40;;;;;;;;;;5083216;28;20060;-54
2022/03/30 13:34:12;;;;;;;3.30;1.52;;;;;;;;;;5078974;28;20044;-55
2022/03/30 13:36:38;;;;;;;4.20;1.58;;;;;;;;;;5078838;28;20128;-53
2022/03/30 13:39:04;;;;;;;1.30;0.77;;;;;;;;;;5081077;28;20123;-56
2022/03/30 13:41:30;;;;;;;3.25;1.77;;;;;;;;;;5084186;28;20130;-56
2022/03/30 13:43:56;;;;;;;1.15;0.70;;;;;;;;;;5085791;28;20581;-57
2022/03/30 13:46:21;;;;;;;1.45;0.90;;;;;;;;;;5081882;28;20044;-57
2022/03/30 13:48:47;;;;;;;1.80;1.05;;;;;;;;;;5085399;28;20576;-56
2022/03/30 13:51:13;;;;;;;1.83;1.23;;;;;;;;;;5083600;28;20067;-56
2022/03/30 13:53:38;;;;;;;6.72;1.70;;;;;;;;;;5083921;28;20665;-55
2022/03/30 13:56:04;;;;;;;8.77;2.83;;;;;;;;;;5084016;28;20040;-56
2022/03/30 13:58:30;;;;;;;3.53;2.03;;;;;;;;;;5081884;28;20048;-57
2022/03/30 14:00:56;;;;;;;2.58;1.73;;;;;;;;;;5084534;28;20067;-57
2022/03/30 14:03:22;;;;;;;3.72;1.40;;;;;;;;;;5080852;28;20055;-56
2022/03/30 14:05:47;;;;;;;6.40;2.92;;;;;;;;;;5083519;28;20565;-54
2022/03/30 14:08:12;;;;;;;3.00;1.48;;;;;;;;;;5082219;28;20040;-56
2022/03/30 14:10:38;;;;;;;4.53;3.90;;;;;;;;;;5081088;28;20716;-57
2022/03/30 14:13:03;;;;;;;1.70;1.55;;;;;;;;;;5080236;28;20606;-55
2022/03/30 14:15:30;;;;;;;7.18;2.05;;;;;;;;;;5083283;28;20407;-55
2022/03/30 14:17:56;;;;;;;3.42;2.03;;;;;;;;;;5083259;28;20046;-56
2022/03/30 14:20:22;;;;;;;4.43;1.48;;;;;;;;;;5081576;28;20036;-56
2022/03/30 14:22:47;;;;;;;6.70;1.90;;;;;;;;;;5079338;28;20049;-57
2022/03/30 14:25:14;;;;;;;4.60;1.25;;;;;;;;;;5081991;28;20055;-56
2022/03/30 14:27:40;;;;;;;1.20;0.73;;;;;;;;;;5083886;28;20075;-55
2022/03/30 14:30:06;;;;;;;5.93;3.03;;;;;;;;;;5080076;28;20075;-55
2022/03/30 14:32:32;;;;;;;7.70;4.53;;;;;;;;;;5079970;28;20495;-58
2022/03/30 14:34:57;;;;;;;12.52;4.47;;;;;;;;;;5080476;28;20093;-56
2022/03/30 14:37:22;;;;;;;6.85;1.95;;;;;;;;;;5079861;28;20052;-57
2022/03/30 14:39:48;;;;;;;6.35;4.13;;;;;;;;;;5084346;28;20490;-56
2022/03/30 14:42:13;;;;;;;4.03;1.60;;;;;;;;;;5078037;28;20058;-57